sensor_id;sensor_type;location;lat;lon;timestamp;temperature;humidity
24730;DHT22;12832;52.392;13.066;2023-01-28T00:00:53;25.00;28.30
24730;DHT22;12832;52.392;13.066;2023-01-28T00:03:19;24.90;28.30
24730;DHT22;12832;52.392;13.066;2023-01-28T00:05:45;25.00;28.30
24730;DHT22;12832;52.392;13.066;2023-01-28T00:08:12;25.00;28.30
24730;DHT22;12832;52.392;13.066;2023-01-28T00:10:40;24.90;28.20
24730;DHT22;12832;52.392;13.066;2023-01-28T00:13:10;24.90;28.20
24730;DHT22;12832;52.392;13.066;2023-01-28T00:15:36;24.90;28.20
24730;DHT22;12832;52.392;13.066;2023-01-28T00:18:02;24.90;28.30
24730;DHT22;12832;52.392;13.066;2023-01-28T00:20:29;25.00;28.30
24730;DHT22;12832;52.392;13.066;2023-01-28T00:22:55;25.00;28.30
24730;DHT22;12832;52.392;13.066;2023-01-28T00:25:21;25.00;28.30
24730;DHT22;12832;52.392;13.066;2023-01-28T00:27:49;25.00;28.30
24730;DHT22;12832;52.392;13.066;2023-01-28T00:30:16;25.00;28.30
24730;DHT22;12832;52.392;13.066;2023-01-28T00:32:42;24.90;28.30
24730;DHT22;12832;52.392;13.066;2023-01-28T00:35:10;25.00;28.20
24730;DHT22;12832;52.392;13.066;2023-01-28T00:37:36;25.00;28.30
24730;DHT22;12832;52.392;13.066;2023-01-28T00:40:03;25.00;28.20
24730;DHT22;12832;52.392;13.066;2023-01-28T00:42:29;25.00;28.30
24730;DHT22;12832;52.392;13.066;2023-01-28T00:44:55;25.00;28.20
24730;DHT22;12832;52.392;13.066;2023-01-28T00:47:21;25.00;28.20
24730;DHT22;12832;52.392;13.066;2023-01-28T00:49:47;25.00;28.20
24730;DHT22;12832;52.392;13.066;2023-01-28T00:52:13;25.00;28.20
24730;DHT22;12832;52.392;13.066;2023-01-28T00:54:40;25.00;28.20
24730;DHT22;12832;52.392;13.066;2023-01-28T00:57:06;25.00;28.20
24730;DHT22;12832;52.392;13.066;2023-01-28T00:59:35;25.00;28.20
24730;DHT22;12832;52.392;13.066;2023-01-28T01:02:01;25.00;28.20
24730;DHT22;12832;52.392;13.066;2023-01-28T01:04:40;25.00;28.20
24730;DHT22;12832;52.392;13.066;2023-01-28T01:07:21;25.00;28.20
24730;DHT22;12832;52.392;13.066;2023-01-28T01:10:03;25.00;28.30
24730;DHT22;12832;52.392;13.066;2023-01-28T01:12:29;25.00;28.30
24730;DHT22;12832;52.392;13.066;2023-01-28T01:14:56;25.00;28.20
24730;DHT22;12832;52.392;13.066;2023-01-28T01:17:22;25.00;28.20
24730;DHT22;12832;52.392;13.066;2023-01-28T01:19:48;25.00;28.30
24730;DHT22;12832;52.392;13.066;2023-01-28T01:22:14;25.00;28.20
24730;DHT22;12832;52.392;13.066;2023-01-28T01:24:40;25.00;28.20
24730;DHT22;12832;52.392;13.066;2023-01-28T01:27:06;25.00;28.20
24730;DHT22;12832;52.392;13.066;2023-01-28T01:29:33;25.00;28.20
24730;DHT22;12832;52.392;13.066;2023-01-28T01:31:59;25.00;28.20
24730;DHT22;12832;52.392;13.066;2023-01-28T01:34:25;25.00;28.20
24730;DHT22;12832;52.392;13.066;2023-01-28T01:36:51;25.00;28.20
24730;DHT22;12832;52.392;13.066;2023-01-28T01:39:18;25.00;28.20
24730;DHT22;12832;52.392;13.066;2023-01-28T01:41:44;25.00;28.20
24730;DHT22;12832;52.392;13.066;2023-01-28T01:47:14;25.00;28.20
24730;DHT22;12832;52.392;13.066;2023-01-28T01:49:41;25.00;28.20
24730;DHT22;12832;52.392;13.066;2023-01-28T01:52:13;25.00;28.20
24730;DHT22;12832;52.392;13.066;2023-01-28T01:54:43;25.00;28.20
24730;DHT22;12832;52.392;13.066;2023-01-28T01:57:13;25.00;28.20
24730;DHT22;12832;52.392;13.066;2023-01-28T01:59:41;25.00;28.70
24730;DHT22;12832;52.392;13.066;2023-01-28T02:02:10;25.00;28.20
24730;DHT22;12832;52.392;13.066;2023-01-28T02:04:39;25.10;28.20
24730;DHT22;12832;52.392;13.066;2023-01-28T02:07:08;25.00;28.20
24730;DHT22;12832;52.392;13.066;2023-01-28T02:09:36;25.00;28.20
24730;DHT22;12832;52.392;13.066;2023-01-28T02:12:04;25.00;28.20
24730;DHT22;12832;52.392;13.066;2023-01-28T02:14:35;25.00;28.20
24730;DHT22;12832;52.392;13.066;2023-01-28T02:17:03;25.00;28.20
24730;DHT22;12832;52.392;13.066;2023-01-28T02:19:44;25.00;28.20
24730;DHT22;12832;52.392;13.066;2023-01-28T02:22:21;25.00;28.70
24730;DHT22;12832;52.392;13.066;2023-01-28T02:30:21;25.00;28.20
24730;DHT22;12832;52.392;13.066;2023-01-28T02:32:58;25.00;28.20
24730;DHT22;12832;52.392;13.066;2023-01-28T02:35:36;25.00;28.20
24730;DHT22;12832;52.392;13.066;2023-01-28T02:38:24;25.00;28.20
24730;DHT22;12832;52.392;13.066;2023-01-28T02:40:55;25.00;28.20
24730;DHT22;12832;52.392;13.066;2023-01-28T02:43:44;25.00;28.20
24730;DHT22;12832;52.392;13.066;2023-01-28T02:49:19;25.00;28.20
24730;DHT22;12832;52.392;13.066;2023-01-28T02:51:53;25.00;28.20
24730;DHT22;12832;52.392;13.066;2023-01-28T03:00:22;25.00;28.20
24730;DHT22;12832;52.392;13.066;2023-01-28T03:06:02;25.00;28.20
24730;DHT22;12832;52.392;13.066;2023-01-28T03:08:43;25.00;28.20
24730;DHT22;12832;52.392;13.066;2023-01-28T03:11:40;25.00;28.20
24730;DHT22;12832;52.392;13.066;2023-01-28T03:14:26;25.00;28.20
24730;DHT22;12832;52.392;13.066;2023-01-28T03:17:17;25.00;28.20
24730;DHT22;12832;52.392;13.066;2023-01-28T03:20:02;25.00;28.20
24730;DHT22;12832;52.392;13.066;2023-01-28T03:22:50;25.00;28.20
24730;DHT22;12832;52.392;13.066;2023-01-28T03:25:37;25.00;28.20
24730;DHT22;12832;52.392;13.066;2023-01-28T03:28:24;25.10;28.20
24730;DHT22;12832;52.392;13.066;2023-01-28T03:31:16;25.00;28.20
24730;DHT22;12832;52.392;13.066;2023-01-28T03:34:02;25.10;28.20
24730;DHT22;12832;52.392;13.066;2023-01-28T03:36:47;25.00;28.20
24730;DHT22;12832;52.392;13.066;2023-01-28T03:39:17;25.00;28.20
24730;DHT22;12832;52.392;13.066;2023-01-28T03:42:01;25.10;28.20
24730;DHT22;12832;52.392;13.066;2023-01-28T03:44:28;25.00;28.10
24730;DHT22;12832;52.392;13.066;2023-01-28T03:47:13;25.00;28.20
24730;DHT22;12832;52.392;13.066;2023-01-28T03:49:43;25.00;28.20
24730;DHT22;12832;52.392;13.066;2023-01-28T03:52:24;25.00;28.20
24730;DHT22;12832;52.392;13.066;2023-01-28T03:54:50;25.00;28.20
24730;DHT22;12832;52.392;13.066;2023-01-28T03:57:20;25.00;28.20
24730;DHT22;12832;52.392;13.066;2023-01-28T03:59:46;25.00;28.70
24730;DHT22;12832;52.392;13.066;2023-01-28T04:02:19;25.00;28.10
24730;DHT22;12832;52.392;13.066;2023-01-28T04:04:45;25.00;28.20
24730;DHT22;12832;52.392;13.066;2023-01-28T04:07:12;25.00;28.20
24730;DHT22;12832;52.392;13.066;2023-01-28T04:09:42;25.00;28.20
24730;DHT22;12832;52.392;13.066;2023-01-28T04:12:08;25.00;28.20
24730;DHT22;12832;52.392;13.066;2023-01-28T04:14:35;25.10;28.20
24730;DHT22;12832;52.392;13.066;2023-01-28T04:17:01;25.00;28.20
24730;DHT22;12832;52.392;13.066;2023-01-28T04:19:28;25.00;28.20
24730;DHT22;12832;52.392;13.066;2023-01-28T04:21:56;25.00;28.20
24730;DHT22;12832;52.392;13.066;2023-01-28T04:24:22;25.00;28.20
24730;DHT22;12832;52.392;13.066;2023-01-28T04:26:49;25.00;28.20
24730;DHT22;12832;52.392;13.066;2023-01-28T04:29:15;25.00;28.20
24730;DHT22;12832;52.392;13.066;2023-01-28T04:31:41;25.10;28.20
24730;DHT22;12832;52.392;13.066;2023-01-28T04:34:08;25.00;28.10
24730;DHT22;12832;52.392;13.066;2023-01-28T04:36:34;25.10;28.20
24730;DHT22;12832;52.392;13.066;2023-01-28T04:39:01;25.00;28.10
24730;DHT22;12832;52.392;13.066;2023-01-28T04:41:27;25.00;28.10
24730;DHT22;12832;52.392;13.066;2023-01-28T04:43:53;25.00;28.20
24730;DHT22;12832;52.392;13.066;2023-01-28T04:46:19;25.10;28.20
24730;DHT22;12832;52.392;13.066;2023-01-28T04:48:45;25.00;28.20
24730;DHT22;12832;52.392;13.066;2023-01-28T04:51:12;25.00;28.10
24730;DHT22;12832;52.392;13.066;2023-01-28T04:53:38;25.00;28.10
24730;DHT22;12832;52.392;13.066;2023-01-28T04:56:04;25.10;28.10
24730;DHT22;12832;52.392;13.066;2023-01-28T04:58:30;25.10;28.20
24730;DHT22;12832;52.392;13.066;2023-01-28T05:00:57;25.00;28.10
24730;DHT22;12832;52.392;13.066;2023-01-28T05:03:24;25.00;28.20
24730;DHT22;12832;52.392;13.066;2023-01-28T05:05:51;25.00;28.20
24730;DHT22;12832;52.392;13.066;2023-01-28T05:08:17;25.00;28.20
24730;DHT22;12832;52.392;13.066;2023-01-28T05:10:43;25.10;28.20
24730;DHT22;12832;52.392;13.066;2023-01-28T05:13:10;25.10;28.20
24730;DHT22;12832;52.392;13.066;2023-01-28T05:15:36;25.10;28.30
24730;DHT22;12832;52.392;13.066;2023-01-28T05:18:02;25.10;28.30
24730;DHT22;12832;52.392;13.066;2023-01-28T05:20:28;25.10;28.30
24730;DHT22;12832;52.392;13.066;2023-01-28T05:22:54;25.10;28.40
24730;DHT22;12832;52.392;13.066;2023-01-28T05:25:21;25.00;28.30
24730;DHT22;12832;52.392;13.066;2023-01-28T05:27:51;25.10;28.40
24730;DHT22;12832;52.392;13.066;2023-01-28T05:30:20;25.10;28.40
24730;DHT22;12832;52.392;13.066;2023-01-28T05:32:47;25.10;28.40
24730;DHT22;12832;52.392;13.066;2023-01-28T05:35:13;25.10;28.40
24730;DHT22;12832;52.392;13.066;2023-01-28T05:37:40;25.10;28.30
24730;DHT22;12832;52.392;13.066;2023-01-28T05:40:07;25.10;28.30
24730;DHT22;12832;52.392;13.066;2023-01-28T05:42:33;25.10;28.30
24730;DHT22;12832;52.392;13.066;2023-01-28T05:44:59;25.10;28.20
24730;DHT22;12832;52.392;13.066;2023-01-28T05:47:25;25.10;28.20
24730;DHT22;12832;52.392;13.066;2023-01-28T05:49:52;25.10;28.20
24730;DHT22;12832;52.392;13.066;2023-01-28T05:52:18;25.10;28.10
24730;DHT22;12832;52.392;13.066;2023-01-28T05:54:44;25.10;28.10
24730;DHT22;12832;52.392;13.066;2023-01-28T05:57:10;25.10;28.10
24730;DHT22;12832;52.392;13.066;2023-01-28T05:59:36;25.10;28.10
24730;DHT22;12832;52.392;13.066;2023-01-28T06:02:02;25.10;28.10
24730;DHT22;12832;52.392;13.066;2023-01-28T06:04:28;25.10;28.10
24730;DHT22;12832;52.392;13.066;2023-01-28T06:06:55;25.10;28.00
24730;DHT22;12832;52.392;13.066;2023-01-28T06:09:21;25.10;28.00
24730;DHT22;12832;52.392;13.066;2023-01-28T06:11:47;25.10;28.00
24730;DHT22;12832;52.392;13.066;2023-01-28T06:14:15;25.10;28.00
24730;DHT22;12832;52.392;13.066;2023-01-28T06:16:41;25.10;27.90
24730;DHT22;12832;52.392;13.066;2023-01-28T06:19:07;25.10;27.90
24730;DHT22;12832;52.392;13.066;2023-01-28T06:21:33;25.10;27.90
24730;DHT22;12832;52.392;13.066;2023-01-28T06:24:00;25.10;27.90
24730;DHT22;12832;52.392;13.066;2023-01-28T06:26:26;25.10;27.80
24730;DHT22;12832;52.392;13.066;2023-01-28T06:28:52;25.00;27.80
24730;DHT22;12832;52.392;13.066;2023-01-28T06:31:18;25.10;27.80
24730;DHT22;12832;52.392;13.066;2023-01-28T06:33:44;25.10;27.80
24730;DHT22;12832;52.392;13.066;2023-01-28T06:36:11;25.10;27.80
24730;DHT22;12832;52.392;13.066;2023-01-28T06:38:37;25.10;27.70
24730;DHT22;12832;52.392;13.066;2023-01-28T06:41:03;25.10;27.70
24730;DHT22;12832;52.392;13.066;2023-01-28T06:43:29;25.10;27.70
24730;DHT22;12832;52.392;13.066;2023-01-28T06:45:56;25.10;27.60
24730;DHT22;12832;52.392;13.066;2023-01-28T06:48:23;25.10;27.60
24730;DHT22;12832;52.392;13.066;2023-01-28T06:50:50;25.10;27.60
24730;DHT22;12832;52.392;13.066;2023-01-28T06:53:17;25.10;27.60
24730;DHT22;12832;52.392;13.066;2023-01-28T06:55:43;25.10;27.60
24730;DHT22;12832;52.392;13.066;2023-01-28T06:58:09;25.10;27.60
24730;DHT22;12832;52.392;13.066;2023-01-28T07:00:35;25.10;27.60
24730;DHT22;12832;52.392;13.066;2023-01-28T07:03:03;25.10;27.50
24730;DHT22;12832;52.392;13.066;2023-01-28T07:05:29;25.10;27.50
24730;DHT22;12832;52.392;13.066;2023-01-28T07:07:56;25.10;27.50
24730;DHT22;12832;52.392;13.066;2023-01-28T07:10:22;25.10;27.50
24730;DHT22;12832;52.392;13.066;2023-01-28T07:12:48;25.10;27.50
24730;DHT22;12832;52.392;13.066;2023-01-28T07:15:14;25.10;27.50
24730;DHT22;12832;52.392;13.066;2023-01-28T07:17:41;25.10;27.50
24730;DHT22;12832;52.392;13.066;2023-01-28T07:20:09;25.10;27.50
24730;DHT22;12832;52.392;13.066;2023-01-28T07:22:36;25.10;27.50
24730;DHT22;12832;52.392;13.066;2023-01-28T07:25:05;25.10;27.50
24730;DHT22;12832;52.392;13.066;2023-01-28T07:27:31;25.10;27.50
24730;DHT22;12832;52.392;13.066;2023-01-28T07:29:57;25.10;27.50
24730;DHT22;12832;52.392;13.066;2023-01-28T07:32:23;25.10;27.50
24730;DHT22;12832;52.392;13.066;2023-01-28T07:34:54;25.10;27.50
24730;DHT22;12832;52.392;13.066;2023-01-28T07:37:21;25.10;27.50
24730;DHT22;12832;52.392;13.066;2023-01-28T07:39:47;25.10;27.50
24730;DHT22;12832;52.392;13.066;2023-01-28T07:42:13;25.10;27.50
24730;DHT22;12832;52.392;13.066;2023-01-28T07:44:39;25.10;27.50
24730;DHT22;12832;52.392;13.066;2023-01-28T07:47:06;25.10;27.50
24730;DHT22;12832;52.392;13.066;2023-01-28T07:49:32;25.10;27.50
24730;DHT22;12832;52.392;13.066;2023-01-28T07:51:59;25.10;27.50
24730;DHT22;12832;52.392;13.066;2023-01-28T07:54:25;25.10;27.50
24730;DHT22;12832;52.392;13.066;2023-01-28T07:56:51;25.10;27.50
24730;DHT22;12832;52.392;13.066;2023-01-28T07:59:17;25.10;27.50
24730;DHT22;12832;52.392;13.066;2023-01-28T08:01:44;25.10;27.50
24730;DHT22;12832;52.392;13.066;2023-01-28T08:04:10;25.10;27.60
24730;DHT22;12832;52.392;13.066;2023-01-28T08:06:36;25.10;27.50
24730;DHT22;12832;52.392;13.066;2023-01-28T08:09:04;25.10;27.50
24730;DHT22;12832;52.392;13.066;2023-01-28T08:11:31;25.10;27.50
24730;DHT22;12832;52.392;13.066;2023-01-28T08:13:58;25.10;27.50
24730;DHT22;12832;52.392;13.066;2023-01-28T08:16:24;25.10;27.50
24730;DHT22;12832;52.392;13.066;2023-01-28T08:18:51;25.10;27.50
24730;DHT22;12832;52.392;13.066;2023-01-28T08:21:17;25.10;27.50
24730;DHT22;12832;52.392;13.066;2023-01-28T08:23:43;25.10;27.50
24730;DHT22;12832;52.392;13.066;2023-01-28T08:26:09;25.10;27.50
24730;DHT22;12832;52.392;13.066;2023-01-28T08:28:35;25.10;27.50
24730;DHT22;12832;52.392;13.066;2023-01-28T08:31:02;25.10;27.50
24730;DHT22;12832;52.392;13.066;2023-01-28T08:33:28;25.10;27.50
24730;DHT22;12832;52.392;13.066;2023-01-28T08:35:55;25.10;27.50
24730;DHT22;12832;52.392;13.066;2023-01-28T08:38:21;25.10;27.50
24730;DHT22;12832;52.392;13.066;2023-01-28T08:40:48;25.10;27.50
24730;DHT22;12832;52.392;13.066;2023-01-28T08:43:20;25.10;27.50
24730;DHT22;12832;52.392;13.066;2023-01-28T08:45:46;25.10;27.50
24730;DHT22;12832;52.392;13.066;2023-01-28T08:48:16;25.10;27.50
24730;DHT22;12832;52.392;13.066;2023-01-28T08:50:43;25.10;27.50
24730;DHT22;12832;52.392;13.066;2023-01-28T08:53:12;25.00;27.50
24730;DHT22;12832;52.392;13.066;2023-01-28T08:55:39;25.10;27.50
24730;DHT22;12832;52.392;13.066;2023-01-28T08:58:09;25.10;27.50
24730;DHT22;12832;52.392;13.066;2023-01-28T09:00:36;25.10;27.50
24730;DHT22;12832;52.392;13.066;2023-01-28T09:03:03;25.10;27.50
24730;DHT22;12832;52.392;13.066;2023-01-28T09:05:32;25.10;27.50
24730;DHT22;12832;52.392;13.066;2023-01-28T09:08:10;25.10;27.60
24730;DHT22;12832;52.392;13.066;2023-01-28T09:10:37;25.10;27.50
24730;DHT22;12832;52.392;13.066;2023-01-28T09:13:08;25.10;27.50
24730;DHT22;12832;52.392;13.066;2023-01-28T09:15:34;25.10;27.50
24730;DHT22;12832;52.392;13.066;2023-01-28T09:18:01;25.10;27.50
24730;DHT22;12832;52.392;13.066;2023-01-28T09:20:27;25.10;27.50
24730;DHT22;12832;52.392;13.066;2023-01-28T09:22:53;25.10;27.60
24730;DHT22;12832;52.392;13.066;2023-01-28T09:25:19;25.10;27.50
24730;DHT22;12832;52.392;13.066;2023-01-28T09:27:46;25.10;27.50
24730;DHT22;12832;52.392;13.066;2023-01-28T09:30:12;25.10;27.50
24730;DHT22;12832;52.392;13.066;2023-01-28T09:32:39;25.10;27.50
24730;DHT22;12832;52.392;13.066;2023-01-28T09:35:06;25.10;27.50
24730;DHT22;12832;52.392;13.066;2023-01-28T09:37:33;25.10;27.60
24730;DHT22;12832;52.392;13.066;2023-01-28T09:39:59;25.10;27.50
24730;DHT22;12832;52.392;13.066;2023-01-28T09:42:50;25.10;27.50
24730;DHT22;12832;52.392;13.066;2023-01-28T09:45:36;25.10;27.50
24730;DHT22;12832;52.392;13.066;2023-01-28T09:48:05;25.10;27.50
24730;DHT22;12832;52.392;13.066;2023-01-28T09:50:37;25.10;27.50
24730;DHT22;12832;52.392;13.066;2023-01-28T09:53:56;25.10;27.60
24730;DHT22;12832;52.392;13.066;2023-01-28T09:56:24;25.10;27.50
24730;DHT22;12832;52.392;13.066;2023-01-28T09:58:51;25.10;27.50
24730;DHT22;12832;52.392;13.066;2023-01-28T10:21:07;25.10;27.50
24730;DHT22;12832;52.392;13.066;2023-01-28T10:26:22;25.10;27.50
24730;DHT22;12832;52.392;13.066;2023-01-28T10:28:54;25.10;27.50
24730;DHT22;12832;52.392;13.066;2023-01-28T10:31:22;25.10;27.50
24730;DHT22;12832;52.392;13.066;2023-01-28T10:33:49;25.10;27.50
24730;DHT22;12832;52.392;13.066;2023-01-28T10:36:15;25.10;27.60
24730;DHT22;12832;52.392;13.066;2023-01-28T10:38:43;25.10;27.50
24730;DHT22;12832;52.392;13.066;2023-01-28T10:41:10;25.10;27.50
24730;DHT22;12832;52.392;13.066;2023-01-28T10:43:39;25.10;27.50
24730;DHT22;12832;52.392;13.066;2023-01-28T10:46:42;25.10;27.50
24730;DHT22;12832;52.392;13.066;2023-01-28T10:49:17;25.10;27.50
24730;DHT22;12832;52.392;13.066;2023-01-28T10:51:46;25.10;27.50
24730;DHT22;12832;52.392;13.066;2023-01-28T10:54:27;25.10;27.50
24730;DHT22;12832;52.392;13.066;2023-01-28T10:56:58;25.10;27.50
24730;DHT22;12832;52.392;13.066;2023-01-28T10:59:28;25.10;27.50
24730;DHT22;12832;52.392;13.066;2023-01-28T11:02:00;25.10;27.50
24730;DHT22;12832;52.392;13.066;2023-01-28T11:04:30;25.10;27.50
24730;DHT22;12832;52.392;13.066;2023-01-28T11:07:17;25.10;27.60
24730;DHT22;12832;52.392;13.066;2023-01-28T11:09:47;25.10;27.50
24730;DHT22;12832;52.392;13.066;2023-01-28T11:14:50;25.10;27.60
24730;DHT22;12832;52.392;13.066;2023-01-28T11:17:19;25.10;27.60
24730;DHT22;12832;52.392;13.066;2023-01-28T11:19:47;25.10;27.60
24730;DHT22;12832;52.392;13.066;2023-01-28T11:24:48;25.10;27.60
24730;DHT22;12832;52.392;13.066;2023-01-28T11:27:16;25.10;27.60
24730;DHT22;12832;52.392;13.066;2023-01-28T11:29:43;25.10;27.50
24730;DHT22;12832;52.392;13.066;2023-01-28T11:32:19;25.10;27.50
24730;DHT22;12832;52.392;13.066;2023-01-28T11:34:51;25.10;27.50
24730;DHT22;12832;52.392;13.066;2023-01-28T11:37:20;25.10;27.50
24730;DHT22;12832;52.392;13.066;2023-01-28T11:39:48;25.10;27.60
24730;DHT22;12832;52.392;13.066;2023-01-28T11:42:19;25.10;27.50
24730;DHT22;12832;52.392;13.066;2023-01-28T11:44:46;25.10;27.50
24730;DHT22;12832;52.392;13.066;2023-01-28T11:50:32;25.10;27.50
24730;DHT22;12832;52.392;13.066;2023-01-28T11:53:15;25.10;27.60
24730;DHT22;12832;52.392;13.066;2023-01-28T11:55:58;25.10;27.60
24730;DHT22;12832;52.392;13.066;2023-01-28T11:58:39;25.10;27.60
24730;DHT22;12832;52.392;13.066;2023-01-28T12:01:20;25.10;27.50
24730;DHT22;12832;52.392;13.066;2023-01-28T12:07:05;25.10;27.50
24730;DHT22;12832;52.392;13.066;2023-01-28T12:09:54;25.10;27.50
24730;DHT22;12832;52.392;13.066;2023-01-28T12:18:18;25.10;27.50
24730;DHT22;12832;52.392;13.066;2023-01-28T12:21:06;25.10;27.60
24730;DHT22;12832;52.392;13.066;2023-01-28T12:26:41;25.10;27.60
24730;DHT22;12832;52.392;13.066;2023-01-28T12:29:29;25.10;27.60
24730;DHT22;12832;52.392;13.066;2023-01-28T12:32:23;25.10;27.50
24730;DHT22;12832;52.392;13.066;2023-01-28T12:35:09;25.10;27.50
24730;DHT22;12832;52.392;13.066;2023-01-28T12:40:40;25.10;27.50
24730;DHT22;12832;52.392;13.066;2023-01-28T12:45:45;25.10;27.50
24730;DHT22;12832;52.392;13.066;2023-01-28T12:48:20;25.10;27.60
24730;DHT22;12832;52.392;13.066;2023-01-28T12:50:55;25.10;27.50
24730;DHT22;12832;52.392;13.066;2023-01-28T12:56:13;25.10;27.50
24730;DHT22;12832;52.392;13.066;2023-01-28T12:58:51;25.10;27.50
24730;DHT22;12832;52.392;13.066;2023-01-28T13:01:24;25.10;27.50
24730;DHT22;12832;52.392;13.066;2023-01-28T13:04:08;25.10;27.50
24730;DHT22;12832;52.392;13.066;2023-01-28T13:06:43;25.10;27.50
24730;DHT22;12832;52.392;13.066;2023-01-28T13:09:18;25.10;27.60
24730;DHT22;12832;52.392;13.066;2023-01-28T13:11:47;25.10;27.50
24730;DHT22;12832;52.392;13.066;2023-01-28T13:14:15;25.10;27.60
24730;DHT22;12832;52.392;13.066;2023-01-28T13:16:42;25.10;27.50
24730;DHT22;12832;52.392;13.066;2023-01-28T13:21:43;25.10;27.50
24730;DHT22;12832;52.392;13.066;2023-01-28T13:31:49;25.10;27.50
24730;DHT22;12832;52.392;13.066;2023-01-28T13:34:31;25.10;27.50
24730;DHT22;12832;52.392;13.066;2023-01-28T13:37:17;25.10;27.50
24730;DHT22;12832;52.392;13.066;2023-01-28T13:39:51;25.10;27.50
24730;DHT22;12832;52.392;13.066;2023-01-28T13:44:44;25.10;27.50
24730;DHT22;12832;52.392;13.066;2023-01-28T13:47:30;25.10;27.50
24730;DHT22;12832;52.392;13.066;2023-01-28T13:52:32;25.10;27.50
24730;DHT22;12832;52.392;13.066;2023-01-28T13:55:05;25.10;27.50
24730;DHT22;12832;52.392;13.066;2023-01-28T14:17:48;25.10;27.50
24730;DHT22;12832;52.392;13.066;2023-01-28T14:20:32;25.10;27.50
24730;DHT22;12832;52.392;13.066;2023-01-28T14:23:05;25.10;27.60
24730;DHT22;12832;52.392;13.066;2023-01-28T14:31:02;25.10;27.50
24730;DHT22;12832;52.392;13.066;2023-01-28T14:33:31;25.10;27.50
24730;DHT22;12832;52.392;13.066;2023-01-28T14:35:57;25.10;27.50
24730;DHT22;12832;52.392;13.066;2023-01-28T14:38:24;25.10;27.60
24730;DHT22;12832;52.392;13.066;2023-01-28T14:40:51;25.10;27.50
24730;DHT22;12832;52.392;13.066;2023-01-28T14:43:22;25.10;27.50
24730;DHT22;12832;52.392;13.066;2023-01-28T14:49:16;25.10;27.50
24730;DHT22;12832;52.392;13.066;2023-01-28T14:54:38;25.10;27.50
24730;DHT22;12832;52.392;13.066;2023-01-28T14:57:44;25.10;27.50
24730;DHT22;12832;52.392;13.066;2023-01-28T15:00:38;25.10;27.50
24730;DHT22;12832;52.392;13.066;2023-01-28T15:03:15;25.10;27.50
24730;DHT22;12832;52.392;13.066;2023-01-28T15:06:13;25.10;27.50
24730;DHT22;12832;52.392;13.066;2023-01-28T15:08:40;25.10;27.50
24730;DHT22;12832;52.392;13.066;2023-01-28T15:11:13;25.10;27.50
24730;DHT22;12832;52.392;13.066;2023-01-28T15:13:43;25.10;27.50
24730;DHT22;12832;52.392;13.066;2023-01-28T15:16:25;25.10;28.00
24730;DHT22;12832;52.392;13.066;2023-01-28T15:18:55;25.10;27.50
24730;DHT22;12832;52.392;13.066;2023-01-28T15:21:43;25.10;27.50
24730;DHT22;12832;52.392;13.066;2023-01-28T15:24:12;25.10;27.60
24730;DHT22;12832;52.392;13.066;2023-01-28T15:26:46;25.10;27.50
24730;DHT22;12832;52.392;13.066;2023-01-28T15:29:23;25.10;27.50
24730;DHT22;12832;52.392;13.066;2023-01-28T15:31:50;25.10;27.50
24730;DHT22;12832;52.392;13.066;2023-01-28T15:34:18;25.10;27.50
24730;DHT22;12832;52.392;13.066;2023-01-28T15:36:45;25.10;27.50
24730;DHT22;12832;52.392;13.066;2023-01-28T15:39:21;25.10;27.50
24730;DHT22;12832;52.392;13.066;2023-01-28T15:41:51;25.10;27.50
24730;DHT22;12832;52.392;13.066;2023-01-28T15:44:26;25.10;27.50
24730;DHT22;12832;52.392;13.066;2023-01-28T15:47:02;25.10;27.50
24730;DHT22;12832;52.392;13.066;2023-01-28T15:49:34;25.10;27.50
24730;DHT22;12832;52.392;13.066;2023-01-28T15:52:01;25.10;27.50
24730;DHT22;12832;52.392;13.066;2023-01-28T15:54:29;25.10;27.50
24730;DHT22;12832;52.392;13.066;2023-01-28T15:56:56;25.10;27.50
24730;DHT22;12832;52.392;13.066;2023-01-28T15:59:27;25.10;27.50
24730;DHT22;12832;52.392;13.066;2023-01-28T16:02:15;25.10;27.50
24730;DHT22;12832;52.392;13.066;2023-01-28T16:04:42;25.10;27.50
24730;DHT22;12832;52.392;13.066;2023-01-28T16:07:09;25.10;27.50
24730;DHT22;12832;52.392;13.066;2023-01-28T16:09:35;25.10;27.50
24730;DHT22;12832;52.392;13.066;2023-01-28T16:12:03;25.10;27.50
24730;DHT22;12832;52.392;13.066;2023-01-28T16:14:36;25.10;27.50
24730;DHT22;12832;52.392;13.066;2023-01-28T16:17:05;25.10;27.50
24730;DHT22;12832;52.392;13.066;2023-01-28T16:19:38;25.10;27.60
24730;DHT22;12832;52.392;13.066;2023-01-28T16:22:06;25.10;27.60
24730;DHT22;12832;52.392;13.066;2023-01-28T16:24:34;25.10;27.60
24730;DHT22;12832;52.392;13.066;2023-01-28T16:27:05;25.10;27.60
24730;DHT22;12832;52.392;13.066;2023-01-28T16:29:32;25.10;27.60
24730;DHT22;12832;52.392;13.066;2023-01-28T16:31:59;25.10;27.60
24730;DHT22;12832;52.392;13.066;2023-01-28T16:34:26;25.10;27.60
24730;DHT22;12832;52.392;13.066;2023-01-28T16:37:00;25.10;27.60
24730;DHT22;12832;52.392;13.066;2023-01-28T16:39:27;25.10;27.60
24730;DHT22;12832;52.392;13.066;2023-01-28T16:41:53;25.10;27.60
24730;DHT22;12832;52.392;13.066;2023-01-28T16:44:21;25.10;27.60
24730;DHT22;12832;52.392;13.066;2023-01-28T16:46:47;25.10;28.10
24730;DHT22;12832;52.392;13.066;2023-01-28T16:49:13;25.20;27.60
24730;DHT22;12832;52.392;13.066;2023-01-28T16:51:40;25.10;27.50
24730;DHT22;12832;52.392;13.066;2023-01-28T16:54:12;25.10;27.50
24730;DHT22;12832;52.392;13.066;2023-01-28T16:56:39;25.10;27.50
24730;DHT22;12832;52.392;13.066;2023-01-28T16:59:13;25.10;27.50
24730;DHT22;12832;52.392;13.066;2023-01-28T17:01:43;25.10;27.50
24730;DHT22;12832;52.392;13.066;2023-01-28T17:04:10;25.10;27.40
24730;DHT22;12832;52.392;13.066;2023-01-28T17:06:40;25.10;27.40
24730;DHT22;12832;52.392;13.066;2023-01-28T17:09:08;25.10;27.40
24730;DHT22;12832;52.392;13.066;2023-01-28T17:11:34;25.10;27.40
24730;DHT22;12832;52.392;13.066;2023-01-28T17:14:01;25.10;27.90
24730;DHT22;12832;52.392;13.066;2023-01-28T17:16:27;25.10;27.30
24730;DHT22;12832;52.392;13.066;2023-01-28T17:18:54;25.10;27.30
24730;DHT22;12832;52.392;13.066;2023-01-28T17:21:20;25.10;27.30
24730;DHT22;12832;52.392;13.066;2023-01-28T17:23:46;25.10;27.30
24730;DHT22;12832;52.392;13.066;2023-01-28T17:26:14;25.10;27.20
24730;DHT22;12832;52.392;13.066;2023-01-28T17:28:41;25.10;27.20
24730;DHT22;12832;52.392;13.066;2023-01-28T17:31:08;25.10;27.20
24730;DHT22;12832;52.392;13.066;2023-01-28T17:33:38;25.10;27.20